Time;durP1;ratioP1;P1;durP2;ratioP2;P2;SDS_P1;SDS_P2;PMS_P1;PMS_P2;Temp;Humidity;BMP_temperature;BMP_pressure;BME280_temperature;BME280_humidity;BME280_pressure;Samples;Min_cycle;Max_cycle;Signal;HPM_P1;HPM_P2
2023/05/02 00:01:03;;;;;;;;;;;;;;;;;;5077016;28;19915;-68
2023/05/02 00:03:29;;;;;;;;;;;;;;;;;;5094881;28;19912;-67
2023/05/02 00:05:55;;;;;;;;;;;;;;;;;;5094963;28;20425;-67
2023/05/02 00:08:21;;;;;;;;;;;;;;;;;;5095434;28;20288;-67
2023/05/02 00:10:47;;;;;;;;;;;;;;;;;;5094567;28;19908;-67
2023/05/02 00:13:13;;;;;;;;;;;;;;;;;;5095012;28;20395;-67
2023/05/02 00:15:39;;;;;;;;;;;;;;;;;;5094945;28;20348;-67
2023/05/02 00:18:05;;;;;;;;;;;;;;;;;;5094453;28;20324;-67
2023/05/02 00:20:31;;;;;;;;;;;;;;;;;;5094850;28;19909;-67
2023/05/02 00:22:57;;;;;;;;;;;;;;;;;;5094435;28;20280;-67
2023/05/02 00:25:23;;;;;;;;;;;;;;;;;;5094507;28;20257;-68
2023/05/02 00:27:49;;;;;;;;;;;;;;;;;;5094779;28;19908;-69
2023/05/02 00:30:15;;;;;;;;;;;;;;;;;;5094268;28;19908;-69
2023/05/02 00:32:41;;;;;;;;;;;;;;;;;;5094773;28;19908;-68
2023/05/02 00:35:07;;;;;;;;;;;;;;;;;;5094768;28;19908;-69
2023/05/02 00:37:33;;;;;;;;;;;;;;;;;;5075989;28;19943;-68
2023/05/02 00:39:59;;;;;;;;;;;;;;;;;;5094478;28;19999;-66
2023/05/02 00:42:25;;;;;;;;;;;;;;;;;;5094416;28;19969;-68
2023/05/02 00:44:51;;;;;;;;;;;;;;;;;;5093975;28;19908;-68
2023/05/02 00:47:17;;;;;;;;;;;;;;;;;;5094531;28;20019;-68
2023/05/02 00:49:43;;;;;;;;;;;;;;;;;;5094385;28;19965;-66
2023/05/02 00:52:09;;;;;;;;;;;;;;;;;;5093814;28;20006;-66
2023/05/02 00:54:35;;;;;;;;;;;;;;;;;;5094186;28;19914;-66
2023/05/02 00:57:01;;;;;;;;;;;;;;;;;;5094170;28;20306;-68
2023/05/02 00:59:27;;;;;;;;;;;;;;;;;;5094090;28;19995;-69
2023/05/02 01:01:53;;;;;;;;;;;;;;;;;;5093920;28;19961;-68
2023/05/02 01:04:19;;;;;;;;;;;;;;;;;;5094485;28;19909;-68
2023/05/02 01:06:45;;;;;;;;;;;;;;;;;;5093591;28;19924;-69
2023/05/02 01:09:11;;;;;;;;;;;;;;;;;;5094307;28;20296;-69
2023/05/02 01:11:37;;;;;;;;;;;;;;;;;;5094020;28;19993;-68
2023/05/02 01:14:03;;;;;;;;;;;;;;;;;;5093599;28;19912;-69
2023/05/02 01:16:29;;;;;;;;;;;;;;;;;;5094003;28;19915;-68
2023/05/02 01:18:55;;;;;;;;;;;;;;;;;;5075916;28;20292;-68
2023/05/02 01:21:21;;;;;;;;;;;;;;;;;;5075409;28;19908;-68
2023/05/02 01:23:47;;;;;;;;;;;;;;;;;;5093994;28;19939;-68
2023/05/02 01:26:13;;;;;;;;;;;;;;;;;;5093695;28;19978;-68
2023/05/02 01:28:39;;;;;;;;;;;;;;;;;;5093531;28;20295;-69
2023/05/02 01:31:05;;;;;;;;;;;;;;;;;;5093825;28;20285;-69
2023/05/02 01:33:31;;;;;;;;;;;;;;;;;;5093653;28;19915;-69
2023/05/02 01:35:57;;;;;;;;;;;;;;;;;;5093947;28;19908;-69
2023/05/02 01:38:24;;;;;;;;;;;;;;;;;;5075770;28;19994;-68
2023/05/02 01:40:50;;;;;;;;;;;;;;;;;;5093364;28;19908;-68
2023/05/02 01:43:16;;;;;;;;;;;;;;;;;;5093677;28;20356;-68
2023/05/02 01:45:41;;;;;;;;;;;;;;;;;;5094028;28;20360;-68
2023/05/02 01:48:07;;;;;;;;;;;;;;;;;;5093311;28;19965;-68
2023/05/02 01:50:33;;;;;;;;;;;;;;;;;;5093819;28;19912;-69
2023/05/02 01:53:00;;;;;;;;;;;;;;;;;;5093951;28;19915;-69
2023/05/02 01:55:26;;;;;;;;;;;;;;;;;;5093432;28;20280;-68
2023/05/02 01:57:52;;;;;;;;;;;;;;;;;;5093590;28;19915;-68
2023/05/02 02:00:18;;;;;;;;;;;;;;;;;;5093582;28;20360;-68
2023/05/02 02:02:44;;;;;;;;;;;;;;;;;;5093167;28;20330;-69
2023/05/02 02:05:10;;;;;;;;;;;;;;;;;;5093530;28;19915;-69
2023/05/02 02:07:36;;;;;;;;;;;;;;;;;;5093819;28;19916;-69
2023/05/02 02:10:02;;;;;;;;;;;;;;;;;;5093020;28;19994;-69
2023/05/02 02:12:28;;;;;;;;;;;;;;;;;;5094267;28;19908;-68
2023/05/02 02:14:54;;;;;;;;;;;;;;;;;;5097209;28;19912;-69
2023/05/02 02:17:20;;;;;;;;;;;;;;;;;;5078641;28;19908;-68
2023/05/02 02:19:46;;;;;;;;;;;;;;;;;;5097203;28;20427;-69
2023/05/02 02:22:12;;;;;;;;;;;;;;;;;;5097147;28;19966;-69
2023/05/02 02:24:38;;;;;;;;;;;;;;;;;;5096731;28;19912;-68
2023/05/02 02:27:04;;;;;;;;;;;;;;;;;;5096887;28;19954;-68
2023/05/02 02:29:30;;;;;;;;;;;;;;;;;;5097003;28;20268;-69
2023/05/02 02:31:56;;;;;;;;;;;;;;;;;;5078359;28;20005;-68
2023/05/02 02:34:22;;;;;;;;;;;;;;;;;;5096996;28;19908;-68
2023/05/02 02:36:48;;;;;;;;;;;;;;;;;;5096494;28;19915;-68
2023/05/02 02:39:14;;;;;;;;;;;;;;;;;;5078659;28;19912;-67
2023/05/02 02:41:40;;;;;;;;;;;;;;;;;;5096828;28;19908;-67
2023/05/02 02:44:06;;;;;;;;;;;;;;;;;;5078157;28;19931;-67
2023/05/02 02:46:32;;;;;;;;;;;;;;;;;;5096585;28;19917;-68
2023/05/02 02:48:58;;;;;;;;;;;;;;;;;;5096621;28;19908;-68
2023/05/02 02:51:24;;;;;;;;;;;;;;;;;;5096205;28;19931;-68
2023/05/02 02:53:50;;;;;;;;;;;;;;;;;;5096486;28;19947;-67
2023/05/02 02:56:16;;;;;;;;;;;;;;;;;;5096481;28;20411;-67
2023/05/02 02:58:42;;;;;;;;;;;;;;;;;;5078004;28;20538;-67
2023/05/02 03:01:09;;;;;;;;;;;;;;;;;;5096487;28;20360;-67
2023/05/02 03:03:35;;;;;;;;;;;;;;;;;;5096358;28;19908;-67
2023/05/02 03:06:01;;;;;;;;;;;;;;;;;;5096004;28;19912;-67
2023/05/02 03:08:27;;;;;;;;;;;;;;;;;;5096339;28;19908;-68
2023/05/02 03:10:53;;;;;;;;;;;;;;;;;;5096270;28;20375;-68
2023/05/02 03:13:19;;;;;;;;;;;;;;;;;;5095826;28;20372;-67
2023/05/02 03:15:45;;;;;;;;;;;;;;;;;;5077947;28;20296;-68
2023/05/02 03:18:11;;;;;;;;;;;;;;;;;;5096184;28;20013;-67
2023/05/02 03:20:37;;;;;;;;;;;;;;;;;;5095722;28;20364;-68
2023/05/02 03:23:03;;;;;;;;;;;;;;;;;;5077771;28;20526;-68
2023/05/02 03:25:29;;;;;;;;;;;;;;;;;;5077484;28;20356;-68
2023/05/02 03:27:54;;;;;;;;;;;;;;;;;;5095558;28;19908;-68
2023/05/02 03:30:20;;;;;;;;;;;;;;;;;;5095843;28;19999;-67
2023/05/02 03:32:46;;;;;;;;;;;;;;;;;;5095751;28;19934;-67
2023/05/02 03:35:12;;;;;;;;;;;;;;;;;;5095377;28;19915;-67
2023/05/02 03:37:38;;;;;;;;;;;;;;;;;;5095650;28;20004;-67
2023/05/02 03:40:04;;;;;;;;;;;;;;;;;;5095234;28;19908;-66
2023/05/02 03:42:30;;;;;;;;;;;;;;;;;;5095898;28;20284;-68
2023/05/02 03:44:56;;;;;;;;;;;;;;;;;;5095710;28;19954;-67
2023/05/02 03:47:22;;;;;;;;;;;;;;;;;;5095049;28;20257;-67
2023/05/02 03:49:48;;;;;;;;;;;;;;;;;;5095490;28;19930;-68
2023/05/02 03:52:14;;;;;;;;;;;;;;;;;;5077225;28;19908;-67
2023/05/02 03:54:42;;;;;;;;;;;;;;;;;;5095036;28;19908;-68
2023/05/02 03:57:08;;;;;;;;;;;;;;;;;;5095419;28;19936;-67
2023/05/02 03:59:34;;;;;;;;;;;;;;;;;;5095388;28;19908;-67
2023/05/02 04:02:00;;;;;;;;;;;;;;;;;;5094934;28;19915;-69
2023/05/02 04:04:26;;;;;;;;;;;;;;;;;;5076916;28;19908;-68
2023/05/02 04:06:52;;;;;;;;;;;;;;;;;;5095065;28;20015;-68
2023/05/02 04:09:23;;;;;;;;;;;;;;;;;;5094676;28;20296;-68
2023/05/02 04:11:49;;;;;;;;;;;;;;;;;;5095151;28;19915;-69
2023/05/02 04:14:15;;;;;;;;;;;;;;;;;;5095052;28;19908;-68
2023/05/02 04:16:41;;;;;;;;;;;;;;;;;;5094516;28;19912;-69
2023/05/02 04:19:07;;;;;;;;;;;;;;;;;;5095169;28;19915;-68
2023/05/02 04:21:33;;;;;;;;;;;;;;;;;;5095080;28;19912;-67
2023/05/02 04:23:59;;;;;;;;;;;;;;;;;;5094420;28;19915;-67
2023/05/02 04:26:25;;;;;;;;;;;;;;;;;;5094510;28;19920;-68
2023/05/02 04:28:51;;;;;;;;;;;;;;;;;;5095235;28;19908;-68
2023/05/02 04:31:17;;;;;;;;;;;;;;;;;;5094262;28;20391;-68
2023/05/02 04:33:44;;;;;;;;;;;;;;;;;;5094900;28;20006;-67
2023/05/02 04:36:10;;;;;;;;;;;;;;;;;;5093728;28;19909;-67
2023/05/02 04:38:36;;;;;;;;;;;;;;;;;;5094642;28;19962;-67
2023/05/02 04:41:02;;;;;;;;;;;;;;;;;;5094587;28;20319;-67
2023/05/02 04:43:28;;;;;;;;;;;;;;;;;;5093996;28;20280;-67
2023/05/02 04:45:54;;;;;;;;;;;;;;;;;;5076190;28;20284;-67
2023/05/02 04:48:20;;;;;;;;;;;;;;;;;;5094333;28;19978;-67
2023/05/02 04:50:46;;;;;;;;;;;;;;;;;;5094011;28;19991;-68
2023/05/02 04:53:12;;;;;;;;;;;;;;;;;;5094326;28;19942;-67
2023/05/02 04:55:38;;;;;;;;;;;;;;;;;;5094344;28;19908;-68
2023/05/02 04:58:04;;;;;;;;;;;;;;;;;;5093778;28;20399;-68
2023/05/02 05:00:30;;;;;;;;;;;;;;;;;;5076122;28;19943;-69
2023/05/02 05:02:56;;;;;;;;;;;;;;;;;;5094217;28;19932;-69
2023/05/02 05:05:22;;;;;;;;;;;;;;;;;;5075504;28;19947;-67
2023/05/02 05:07:48;;;;;;;;;;;;;;;;;;5094149;28;19950;-68
2023/05/02 05:10:14;;;;;;;;;;;;;;;;;;5094088;28;19908;-69
2023/05/02 05:12:41;;;;;;;;;;;;;;;;;;5075801;28;19931;-68
2023/05/02 05:15:07;;;;;;;;;;;;;;;;;;5094060;28;19912;-68
2023/05/02 05:17:33;;;;;;;;;;;;;;;;;;5093911;28;19967;-67
2023/05/02 05:19:59;;;;;;;;;;;;;;;;;;5093552;28;19998;-69
2023/05/02 05:22:25;;;;;;;;;;;;;;;;;;5093192;28;19959;-68
2023/05/02 05:24:51;;;;;;;;;;;;;;;;;;5088242;28;19912;-68
2023/05/02 05:27:17;;;;;;;;;;;;;;;;;;5087385;28;19920;-66
2023/05/02 05:29:43;;;;;;;;;;;;;;;;;;5091838;28;20372;-68
2023/05/02 05:32:09;;;;;;;;;;;;;;;;;;5068188;28;20403;-67
2023/05/02 05:34:36;;;;;;;;;;;;;;;;;;5082981;28;19908;-67
2023/05/02 05:37:01;;;;;;;;;;;;;;;;;;5086060;28;19912;-65
2023/05/02 05:39:27;;;;;;;;;;;;;;;;;;5088217;28;19974;-66
2023/05/02 05:41:53;;;;;;;;;;;;;;;;;;5069215;28;19975;-65
2023/05/02 05:44:24;;;;;;;;;;;;;;;;;;5087350;28;20422;-65
2023/05/02 05:46:50;;;;;;;;;;;;;;;;;;5089891;28;19924;-66
2023/05/02 05:49:16;;;;;;;;;;;;;;;;;;5093355;28;19912;-66
2023/05/02 05:51:42;;;;;;;;;;;;;;;;;;5093918;28;19935;-66
2023/05/02 05:54:08;;;;;;;;;;;;;;;;;;5093204;28;20360;-67
2023/05/02 05:56:34;;;;;;;;;;;;;;;;;;5093750;28;20007;-67
2023/05/02 05:59:00;;;;;;;;;;;;;;;;;;5092535;28;19919;-67
2023/05/02 06:01:26;;;;;;;;;;;;;;;;;;5093733;28;19912;-66
2023/05/02 06:03:52;;;;;;;;;;;;;;;;;;5091419;28;19908;-65
2023/05/02 06:06:18;;;;;;;;;;;;;;;;;;5094573;28;20376;-65
2023/05/02 06:08:44;;;;;;;;;;;;;;;;;;5095317;28;19916;-66
2023/05/02 06:11:12;;;;;;;;;;;;;;;;;;5096494;28;19912;-66
2023/05/02 06:13:38;;;;;;;;;;;;;;;;;;5093712;28;20368;-67
2023/05/02 06:16:05;;;;;;;;;;;;;;;;;;5077637;28;19917;-67
2023/05/02 06:18:31;;;;;;;;;;;;;;;;;;5091229;28;19908;-66
2023/05/02 06:20:57;;;;;;;;;;;;;;;;;;5071255;28;19959;-65
2023/05/02 06:23:23;;;;;;;;;;;;;;;;;;5067960;28;19916;-66
2023/05/02 06:25:49;;;;;;;;;;;;;;;;;;5093255;28;19935;-66
2023/05/02 06:32:17;;;;;;;;;;;;;;;;;;5089361;27;19921;-65
2023/05/02 06:34:43;;;;;;;;;;;;;;;;;;5086912;28;19917;-64
2023/05/02 06:37:09;;;;;;;;;;;;;;;;;;5080893;28;20041;-65
2023/05/02 06:39:36;;;;;;;;;;;;;;;;;;5078184;28;19912;-64
2023/05/02 06:42:01;;;;;;;;;;;;;;;;;;5067480;28;19919;-66
2023/05/02 06:44:27;;;;;;;;;;;;;;;;;;5081925;28;19916;-66
2023/05/02 06:46:54;;;;;;;;;;;;;;;;;;5081999;28;19919;-66
2023/05/02 06:52:12;;;;;;;;;;;;;;;;;;5149868;27;19922;-65
2023/05/02 07:00:57;;;;;;;;;;;;;;;;;;5083781;27;19920;-66
2023/05/02 07:03:23;;;;;;;;;;;;;;;;;;5068006;28;19920;-63
2023/05/02 07:09:53;;;;;;;;;;;;;;;;;;5078202;28;20601;-63
2023/05/02 07:12:19;;;;;;;;;;;;;;;;;;5082409;28;19920;-64
2023/05/02 07:14:46;;;;;;;;;;;;;;;;;;5084523;28;19994;-66
2023/05/02 07:18:18;;;;;;;;;;;;;;;;;;5085945;27;19934;-63
2023/05/02 07:20:44;;;;;;;;;;;;;;;;;;5080801;28;19912;-65
2023/05/02 07:23:10;;;;;;;;;;;;;;;;;;5064456;28;19955;-64
2023/05/02 07:26:17;;;;;;;;;;;;;;;;;;5066494;28;19921;-64
2023/05/02 07:31:53;;;;;;;;;;;;;;;;;;5067064;27;2158880;-64
2023/05/02 07:38:05;;;;;;;;;;;;;;;;;;5135959;27;19916;-64
2023/05/02 07:40:31;;;;;;;;;;;;;;;;;;5118744;28;20011;-64
2023/05/02 07:42:58;;;;;;;;;;;;;;;;;;5107977;28;19916;-64
2023/05/02 07:45:24;;;;;;;;;;;;;;;;;;5109134;28;19915;-64
2023/05/02 07:47:50;;;;;;;;;;;;;;;;;;5100683;28;20003;-64
2023/05/02 07:50:16;;;;;;;;;;;;;;;;;;5110898;28;19907;-65
2023/05/02 07:52:42;;;;;;;;;;;;;;;;;;5105842;28;19923;-64
2023/05/02 07:55:32;;;;;;;;;;;;;;;;;;5046457;28;19927;-64
2023/05/02 08:00:18;;;;;;;;;;;;;;;;;;5137067;27;20272;-64
2023/05/02 08:03:53;;;;;;;;;;;;;;;;;;5126391;27;19926;-64
2023/05/02 08:11:13;;;;;;;;;;;;;;;;;;5131318;27;19926;-65
2023/05/02 08:13:39;;;;;;;;;;;;;;;;;;5127019;28;19912;-64
2023/05/02 08:16:05;;;;;;;;;;;;;;;;;;5115101;28;19912;-66
2023/05/02 08:18:31;;;;;;;;;;;;;;;;;;5115804;28;20167;-67
2023/05/02 08:22:20;;;;;;;;;;;;;;;;;;5146821;27;20006;-67
2023/05/02 08:24:46;;;;;;;;;;;;;;;;;;5128824;27;20276;-67
2023/05/02 08:27:12;;;;;;;;;;;;;;;;;;5124673;28;19981;-66
2023/05/02 08:29:38;;;;;;;;;;;;;;;;;;5127333;28;19954;-67
2023/05/02 08:32:48;;;;;;;;;;;;;;;;;;5147776;27;19912;-67
2023/05/02 08:35:39;;;;;;;;;;;;;;;;;;5088331;27;19923;-67
2023/05/02 08:38:06;;;;;;;;;;;;;;;;;;5088433;28;19913;-67
2023/05/02 08:40:45;;;;;;;;;;;;;;;;;;5074578;27;2119780;-68
2023/05/02 08:43:11;;;;;;;;;;;;;;;;;;5148046;27;20388;-67
2023/05/02 08:45:37;;;;;;;;;;;;;;;;;;5147959;27;19972;-68
2023/05/02 08:48:03;;;;;;;;;;;;;;;;;;5141213;27;19907;-67
2023/05/02 08:50:29;;;;;;;;;;;;;;;;;;5135791;27;20432;-67
2023/05/02 08:52:55;;;;;;;;;;;;;;;;;;5149928;27;19907;-68
2023/05/02 08:56:27;;;;;;;;;;;;;;;;;;5140836;27;19938;-68
2023/05/02 08:58:53;;;;;;;;;;;;;;;;;;5106478;28;19913;-69
2023/05/02 09:01:20;;;;;;;;;;;;;;;;;;5104254;28;19908;-68
2023/05/02 09:03:46;;;;;;;;;;;;;;;;;;5104575;28;19912;-69
2023/05/02 09:07:40;;;;;;;;;;;;;;;;;;5125543;27;19912;-67
2023/05/02 09:10:06;;;;;;;;;;;;;;;;;;5126261;28;20382;-67
2023/05/02 09:12:32;;;;;;;;;;;;;;;;;;5125989;28;19907;-67
2023/05/02 09:14:58;;;;;;;;;;;;;;;;;;5126696;28;20182;-67
2023/05/02 09:17:24;;;;;;;;;;;;;;;;;;5118749;28;19919;-67
2023/05/02 09:23:04;;;;;;;;;;;;;;;;;;5046137;27;2386029;-68
2023/05/02 09:25:30;;;;;;;;;;;;;;;;;;5127240;28;19911;-68
2023/05/02 09:30:03;;;;;;;;;;;;;;;;;;5087295;27;19919;-68
2023/05/02 09:32:29;;;;;;;;;;;;;;;;;;5087562;28;20269;-68
2023/05/02 09:36:14;;;;;;;;;;;;;;;;;;5085610;27;19923;-67
2023/05/02 09:40:15;;;;;;;;;;;;;;;;;;5088051;27;19913;-68
2023/05/02 09:42:41;;;;;;;;;;;;;;;;;;5088842;28;19923;-68
2023/05/02 09:47:12;;;;;;;;;;;;;;;;;;5066971;28;20415;-69
2023/05/02 09:49:38;;;;;;;;;;;;;;;;;;5069115;28;19913;-69
2023/05/02 09:53:43;;;;;;;;;;;;;;;;;;5068452;28;19919;-68
2023/05/02 09:56:09;;;;;;;;;;;;;;;;;;5067655;28;19912;-67
2023/05/02 09:58:35;;;;;;;;;;;;;;;;;;5067907;28;19991;-67
2023/05/02 10:07:37;;;;;;;;;;;;;;;;;;5087104;27;20296;-69
2023/05/02 10:10:03;;;;;;;;;;;;;;;;;;5089352;28;20003;-68
2023/05/02 10:14:52;;;;;;;;;;;;;;;;;;5149917;27;19911;-67
2023/05/02 10:17:17;;;;;;;;;;;;;;;;;;5149999;27;19965;-67
2023/05/02 10:19:43;;;;;;;;;;;;;;;;;;5150122;27;19907;-67
2023/05/02 10:22:10;;;;;;;;;;;;;;;;;;5144785;27;19981;-66
2023/05/02 10:24:35;;;;;;;;;;;;;;;;;;5133289;27;19915;-67
2023/05/02 10:27:01;;;;;;;;;;;;;;;;;;5133079;27;19915;-66
2023/05/02 10:29:27;;;;;;;;;;;;;;;;;;5117014;27;19915;-66
2023/05/02 10:32:54;;;;;;;;;;;;;;;;;;5151192;27;19912;-65
2023/05/02 10:37:33;;;;;;;;;;;;;;;;;;5088279;27;19920;-67
2023/05/02 10:42:40;;;;;;;;;;;;;;;;;;5088313;27;20498;-64
2023/05/02 10:45:06;;;;;;;;;;;;;;;;;;5088841;28;19912;-67
2023/05/02 10:47:32;;;;;;;;;;;;;;;;;;5087844;28;19919;-65
2023/05/02 10:49:58;;;;;;;;;;;;;;;;;;5089331;28;19954;-64
2023/05/02 10:52:24;;;;;;;;;;;;;;;;;;5090164;28;19908;-64
2023/05/02 10:54:50;;;;;;;;;;;;;;;;;;5089554;28;19995;-64
2023/05/02 10:57:16;;;;;;;;;;;;;;;;;;5093116;28;20273;-65
2023/05/02 10:59:42;;;;;;;;;;;;;;;;;;5090320;28;19936;-65
2023/05/02 11:02:08;;;;;;;;;;;;;;;;;;5090224;28;20296;-64
2023/05/02 11:04:34;;;;;;;;;;;;;;;;;;5089961;28;19928;-67
2023/05/02 11:07:01;;;;;;;;;;;;;;;;;;5089822;28;19909;-68
2023/05/02 11:09:27;;;;;;;;;;;;;;;;;;5090861;28;19916;-68
2023/05/02 11:13:54;;;;;;;;;;;;;;;;;;5153140;27;19941;-67
2023/05/02 11:25:26;;;;;;;;;;;;;;;;;;5091261;27;19913;-69
2023/05/02 11:27:52;;;;;;;;;;;;;;;;;;5091454;28;19966;-69
2023/05/02 11:34:46;;;;;;;;;;;;;;;;;;5091665;27;20395;-68
2023/05/02 11:38:58;;;;;;;;;;;;;;;;;;5091350;27;19913;-68
2023/05/02 11:41:24;;;;;;;;;;;;;;;;;;5091331;28;20284;-68
2023/05/02 11:43:50;;;;;;;;;;;;;;;;;;5091303;28;19962;-68
2023/05/02 11:46:18;;;;;;;;;;;;;;;;;;5090858;28;19912;-68
2023/05/02 11:48:44;;;;;;;;;;;;;;;;;;5091138;28;19908;-68
2023/05/02 11:51:10;;;;;;;;;;;;;;;;;;5089776;28;19998;-68
2023/05/02 11:54:34;;;;;;;;;;;;;;;;;;5091514;27;20265;-68
2023/05/02 11:57:00;;;;;;;;;;;;;;;;;;5091296;28;19916;-68
2023/05/02 12:03:03;;;;;;;;;;;;;;;;;;5092004;27;20264;-68
2023/05/02 12:05:29;;;;;;;;;;;;;;;;;;5091359;28;19912;-68
2023/05/02 12:10:19;;;;;;;;;;;;;;;;;;5088425;27;20414;-69
2023/05/02 12:13:46;;;;;;;;;;;;;;;;;;5090761;27;19935;-68
2023/05/02 12:16:12;;;;;;;;;;;;;;;;;;5091241;28;20436;-68
2023/05/02 12:18:38;;;;;;;;;;;;;;;;;;5091286;28;19943;-68
2023/05/02 12:21:04;;;;;;;;;;;;;;;;;;5090380;28;19999;-68
2023/05/02 12:29:11;;;;;;;;;;;;;;;;;;5151741;27;19952;-68
2023/05/02 12:31:37;;;;;;;;;;;;;;;;;;5153247;27;19950;-68
2023/05/02 12:34:03;;;;;;;;;;;;;;;;;;5152644;27;19908;-69
2023/05/02 12:36:29;;;;;;;;;;;;;;;;;;5152201;27;20385;-68
2023/05/02 12:42:56;;;;;;;;;;;;;;;;;;5090899;28;19922;-69
2023/05/02 12:45:22;;;;;;;;;;;;;;;;;;5091323;28;19945;-68
2023/05/02 12:47:48;;;;;;;;;;;;;;;;;;5091115;28;19909;-68
2023/05/02 12:50:14;;;;;;;;;;;;;;;;;;5089474;28;20012;-68
2023/05/02 12:52:40;;;;;;;;;;;;;;;;;;5091344;28;19954;-68
2023/05/02 12:55:06;;;;;;;;;;;;;;;;;;5090538;28;19942;-68
2023/05/02 12:57:32;;;;;;;;;;;;;;;;;;5089077;28;19908;-68
2023/05/02 12:59:58;;;;;;;;;;;;;;;;;;5088843;28;19924;-68
2023/05/02 13:02:24;;;;;;;;;;;;;;;;;;5087516;28;19916;-68
2023/05/02 13:04:51;;;;;;;;;;;;;;;;;;5088466;28;20372;-68
2023/05/02 13:07:17;;;;;;;;;;;;;;;;;;5089069;28;19916;-68
2023/05/02 13:09:42;;;;;;;;;;;;;;;;;;5088378;28;19908;-69
2023/05/02 13:12:08;;;;;;;;;;;;;;;;;;5089287;28;19916;-69
2023/05/02 13:14:34;;;;;;;;;;;;;;;;;;5090702;28;19952;-67
2023/05/02 13:17:00;;;;;;;;;;;;;;;;;;5090425;28;19916;-68
2023/05/02 13:19:29;;;;;;;;;;;;;;;;;;5090947;28;20284;-68
2023/05/02 13:21:55;;;;;;;;;;;;;;;;;;5090577;28;19912;-68
2023/05/02 13:24:21;;;;;;;;;;;;;;;;;;5090160;28;19954;-68
2023/05/02 13:27:00;;;;;;;;;;;;;;;;;;5091368;27;19917;-67
2023/05/02 13:29:26;;;;;;;;;;;;;;;;;;5091328;28;20275;-67
2023/05/02 13:31:52;;;;;;;;;;;;;;;;;;5090852;28;20444;-67
2023/05/02 13:34:18;;;;;;;;;;;;;;;;;;5091388;28;19952;-67
2023/05/02 13:36:44;;;;;;;;;;;;;;;;;;5091186;28;19916;-67
2023/05/02 13:39:11;;;;;;;;;;;;;;;;;;5090685;28;20357;-67
2023/05/02 13:41:37;;;;;;;;;;;;;;;;;;5090916;28;19915;-67
2023/05/02 13:44:04;;;;;;;;;;;;;;;;;;5090854;28;19908;-67
2023/05/02 13:46:35;;;;;;;;;;;;;;;;;;5090520;28;20488;-67
2023/05/02 13:49:01;;;;;;;;;;;;;;;;;;5089605;28;20296;-67
2023/05/02 13:51:27;;;;;;;;;;;;;;;;;;5091141;28;19915;-67
2023/05/02 13:53:54;;;;;;;;;;;;;;;;;;5090356;28;19908;-67
2023/05/02 13:56:20;;;;;;;;;;;;;;;;;;5090718;28;19919;-67
2023/05/02 13:58:46;;;;;;;;;;;;;;;;;;5090716;28;20315;-68
2023/05/02 14:01:12;;;;;;;;;;;;;;;;;;5090325;28;19909;-67
2023/05/02 14:03:38;;;;;;;;;;;;;;;;;;5089321;28;19915;-67
2023/05/02 14:06:04;;;;;;;;;;;;;;;;;;5081707;28;19916;-67
2023/05/02 14:08:30;;;;;;;;;;;;;;;;;;5071191;28;19917;-67
2023/05/02 14:10:56;;;;;;;;;;;;;;;;;;5070440;28;19913;-67
2023/05/02 14:13:23;;;;;;;;;;;;;;;;;;5070076;28;19908;-68
2023/05/02 14:15:49;;;;;;;;;;;;;;;;;;5074529;28;19908;-68
2023/05/02 14:18:18;;;;;;;;;;;;;;;;;;5083965;28;19912;-67
2023/05/02 14:20:44;;;;;;;;;;;;;;;;;;5076909;28;19915;-68
2023/05/02 14:23:10;;;;;;;;;;;;;;;;;;5084595;28;19939;-68
2023/05/02 14:25:36;;;;;;;;;;;;;;;;;;5095141;28;20340;-68
2023/05/02 14:28:01;;;;;;;;;;;;;;;;;;5110261;28;19908;-68
2023/05/02 14:30:27;;;;;;;;;;;;;;;;;;5110847;28;19908;-68
2023/05/02 14:32:53;;;;;;;;;;;;;;;;;;5106955;28;19962;-67
2023/05/02 14:35:19;;;;;;;;;;;;;;;;;;5086781;28;19916;-68
2023/05/02 14:37:45;;;;;;;;;;;;;;;;;;5083057;28;19918;-68
2023/05/02 14:40:12;;;;;;;;;;;;;;;;;;5094182;28;20331;-67
2023/05/02 14:42:38;;;;;;;;;;;;;;;;;;5068889;28;19995;-67
2023/05/02 14:45:04;;;;;;;;;;;;;;;;;;5067710;28;20448;-67
2023/05/02 14:47:30;;;;;;;;;;;;;;;;;;5055034;28;20297;-67
2023/05/02 14:49:56;;;;;;;;;;;;;;;;;;5062194;28;19955;-67
2023/05/02 14:52:22;;;;;;;;;;;;;;;;;;5055209;28;19951;-67
2023/05/02 14:54:48;;;;;;;;;;;;;;;;;;5055080;28;19909;-67
2023/05/02 14:57:14;;;;;;;;;;;;;;;;;;5055320;28;19909;-68
2023/05/02 14:59:40;;;;;;;;;;;;;;;;;;5054357;28;20361;-68
2023/05/02 15:02:06;;;;;;;;;;;;;;;;;;5055630;28;19909;-68
2023/05/02 15:04:32;;;;;;;;;;;;;;;;;;5054799;28;20373;-68
2023/05/02 15:06:58;;;;;;;;;;;;;;;;;;5053919;28;19961;-68
2023/05/02 15:09:25;;;;;;;;;;;;;;;;;;5053442;28;19970;-68
2023/05/02 15:11:51;;;;;;;;;;;;;;;;;;5053855;28;19958;-68
2023/05/02 15:14:17;;;;;;;;;;;;;;;;;;5053779;28;19909;-67
2023/05/02 15:16:43;;;;;;;;;;;;;;;;;;5052043;28;19915;-67
2023/05/02 15:19:09;;;;;;;;;;;;;;;;;;5054283;28;19908;-67
2023/05/02 15:21:35;;;;;;;;;;;;;;;;;;5055733;28;20000;-67
2023/05/02 15:24:01;;;;;;;;;;;;;;;;;;5055374;28;20336;-68
2023/05/02 15:26:27;;;;;;;;;;;;;;;;;;5071297;28;19924;-67
2023/05/02 15:31:13;;;;;;;;;;;;;;;;;;5091363;28;19935;-67
2023/05/02 15:33:39;;;;;;;;;;;;;;;;;;5091329;28;20003;-66
2023/05/02 15:36:05;;;;;;;;;;;;;;;;;;5091406;28;19959;-67
2023/05/02 15:38:33;;;;;;;;;;;;;;;;;;5090900;28;19909;-69
2023/05/02 15:40:59;;;;;;;;;;;;;;;;;;5091213;28;19959;-66
2023/05/02 15:43:25;;;;;;;;;;;;;;;;;;5091202;28;19912;-68
2023/05/02 15:45:51;;;;;;;;;;;;;;;;;;5090909;28;20297;-68
2023/05/02 15:48:17;;;;;;;;;;;;;;;;;;5089886;28;19916;-69
2023/05/02 15:50:44;;;;;;;;;;;;;;;;;;5090881;28;19920;-67
2023/05/02 15:53:10;;;;;;;;;;;;;;;;;;5090787;28;19909;-67
2023/05/02 15:55:36;;;;;;;;;;;;;;;;;;5090938;28;20383;-67
2023/05/02 15:58:02;;;;;;;;;;;;;;;;;;5090826;28;20380;-67
2023/05/02 16:02:25;;;;;;;;;;;;;;;;;;5091312;27;19917;-67
2023/05/02 16:04:51;;;;;;;;;;;;;;;;;;5091328;28;20007;-68
2023/05/02 16:07:17;;;;;;;;;;;;;;;;;;5090947;28;20292;-68
2023/05/02 16:09:43;;;;;;;;;;;;;;;;;;5089977;28;20326;-68
2023/05/02 16:12:09;;;;;;;;;;;;;;;;;;5091191;28;19912;-68
2023/05/02 16:14:35;;;;;;;;;;;;;;;;;;5090923;28;19912;-68
2023/05/02 16:17:02;;;;;;;;;;;;;;;;;;5091211;28;19908;-68
2023/05/02 16:19:29;;;;;;;;;;;;;;;;;;5089605;28;20385;-69
2023/05/02 16:21:55;;;;;;;;;;;;;;;;;;5090901;28;19921;-69
2023/05/02 16:33:34;;;;;;;;;;;;;;;;;;5091079;27;19992;-68
2023/05/02 16:36:00;;;;;;;;;;;;;;;;;;5091131;28;19912;-67
2023/05/02 16:39:57;;;;;;;;;;;;;;;;;;5153488;27;20010;-69
2023/05/02 16:44:31;;;;;;;;;;;;;;;;;;5091768;27;19923;-68
2023/05/02 16:49:20;;;;;;;;;;;;;;;;;;5091243;27;20300;-68
2023/05/02 16:51:50;;;;;;;;;;;;;;;;;;5091370;28;19917;-68
2023/05/02 16:54:16;;;;;;;;;;;;;;;;;;5091232;28;20304;-68
2023/05/02 16:56:42;;;;;;;;;;;;;;;;;;5089530;28;20364;-67
2023/05/02 16:59:40;;;;;;;;;;;;;;;;;;5091126;27;19922;-67
2023/05/02 17:02:38;;;;;;;;;;;;;;;;;;5152555;27;19916;-67
2023/05/02 17:05:04;;;;;;;;;;;;;;;;;;5152799;27;20397;-67
2023/05/02 17:07:30;;;;;;;;;;;;;;;;;;5152778;27;19994;-67
2023/05/02 17:09:56;;;;;;;;;;;;;;;;;;5152273;27;19915;-67
2023/05/02 17:14:14;;;;;;;;;;;;;;;;;;5091360;27;20399;-68
2023/05/02 17:16:40;;;;;;;;;;;;;;;;;;5090919;28;19919;-68
2023/05/02 17:20:37;;;;;;;;;;;;;;;;;;5091774;27;19916;-67
2023/05/02 17:23:03;;;;;;;;;;;;;;;;;;5090821;28;20007;-67
2023/05/02 17:26:13;;;;;;;;;;;;;;;;;;5152796;27;20013;-67
2023/05/02 17:28:39;;;;;;;;;;;;;;;;;;5152752;27;19958;-67
2023/05/02 17:32:51;;;;;;;;;;;;;;;;;;5111582;27;19912;-68
2023/05/02 17:38:43;;;;;;;;;;;;;;;;;;5091058;28;20300;-67
2023/05/02 17:41:42;;;;;;;;;;;;;;;;;;5153199;27;20002;-68
2023/05/02 17:49:57;;;;;;;;;;;;;;;;;;5153036;27;19915;-67
2023/05/02 17:54:46;;;;;;;;;;;;;;;;;;5091217;27;19919;-66
2023/05/02 17:57:13;;;;;;;;;;;;;;;;;;5091387;28;20007;-66
2023/05/02 18:00:31;;;;;;;;;;;;;;;;;;5152814;27;19911;-66
2023/05/02 18:02:57;;;;;;;;;;;;;;;;;;5152914;27;19911;-67
2023/05/02 18:08:49;;;;;;;;;;;;;;;;;;5152912;27;20359;-66
2023/05/02 18:11:15;;;;;;;;;;;;;;;;;;5152922;27;19912;-67
2023/05/02 18:16:03;;;;;;;;;;;;;;;;;;5153505;27;19911;-67
2023/05/02 18:18:29;;;;;;;;;;;;;;;;;;5152948;27;19911;-68
2023/05/02 18:23:13;;;;;;;;;;;;;;;;;;5132309;27;20018;-66
2023/05/02 18:25:39;;;;;;;;;;;;;;;;;;5132333;27;19973;-66
2023/05/02 18:28:05;;;;;;;;;;;;;;;;;;5131712;28;19912;-66
2023/05/02 18:35:51;;;;;;;;;;;;;;;;;;5071355;28;19923;-68
2023/05/02 18:38:18;;;;;;;;;;;;;;;;;;5069860;28;19913;-68
2023/05/02 18:42:46;;;;;;;;;;;;;;;;;;5091465;27;19916;-67
2023/05/02 18:48:59;;;;;;;;;;;;;;;;;;5090965;28;20287;-68
2023/05/02 18:52:45;;;;;;;;;;;;;;;;;;5111865;27;19916;-67
2023/05/02 18:55:11;;;;;;;;;;;;;;;;;;5111253;28;20007;-69
2023/05/02 18:57:37;;;;;;;;;;;;;;;;;;5110340;28;20331;-67
2023/05/02 19:04:18;;;;;;;;;;;;;;;;;;5152857;27;20383;-68
2023/05/02 19:07:33;;;;;;;;;;;;;;;;;;5091842;27;19916;-70
2023/05/02 19:14:22;;;;;;;;;;;;;;;;;;5071342;28;19923;-69
2023/05/02 19:18:29;;;;;;;;;;;;;;;;;;5071181;28;19919;-68
2023/05/02 19:20:56;;;;;;;;;;;;;;;;;;5071140;28;20011;-68
2023/05/02 19:23:22;;;;;;;;;;;;;;;;;;5070710;28;19959;-68
2023/05/02 19:25:48;;;;;;;;;;;;;;;;;;5070957;28;20357;-67
2023/05/02 19:28:30;;;;;;;;;;;;;;;;;;5091358;27;19916;-66
2023/05/02 19:32:37;;;;;;;;;;;;;;;;;;5132164;27;20006;-67